sensor_id;sensor_type;location;lat;lon;timestamp;P1;durP1;ratioP1;P2;durP2;ratioP2
59659;SDS011;45534;52.690;6.268;2023-03-31T00:01:28;7.90;;;3.45;;
59659;SDS011;45534;52.690;6.268;2023-03-31T00:03:58;12.43;;;3.92;;
59659;SDS011;45534;52.690;6.268;2023-03-31T00:06:33;24.40;;;6.20;;
59659;SDS011;45534;52.690;6.268;2023-03-31T00:09:05;13.00;;;5.10;;
59659;SDS011;45534;52.690;6.268;2023-03-31T00:11:37;22.25;;;5.60;;
59659;SDS011;45534;52.690;6.268;2023-03-31T00:14:07;11.13;;;5.97;;
59659;SDS011;45534;52.690;6.268;2023-03-31T00:16:33;16.10;;;5.03;;
59659;SDS011;45534;52.690;6.268;2023-03-31T00:19:03;13.85;;;3.38;;
59659;SDS011;45534;52.690;6.268;2023-03-31T00:21:29;28.77;;;4.68;;
59659;SDS011;45534;52.690;6.268;2023-03-31T00:24:08;4.50;;;2.88;;
59659;SDS011;45534;52.690;6.268;2023-03-31T00:26:35;11.55;;;4.03;;
59659;SDS011;45534;52.690;6.268;2023-03-31T00:29:02;28.75;;;5.38;;
59659;SDS011;45534;52.690;6.268;2023-03-31T00:31:31;21.35;;;5.03;;
59659;SDS011;45534;52.690;6.268;2023-03-31T00:33:57;13.77;;;5.15;;
59659;SDS011;45534;52.690;6.268;2023-03-31T00:36:23;23.33;;;7.32;;
59659;SDS011;45534;52.690;6.268;2023-03-31T00:38:57;20.98;;;9.63;;
59659;SDS011;45534;52.690;6.268;2023-03-31T00:41:25;20.98;;;6.85;;
59659;SDS011;45534;52.690;6.268;2023-03-31T00:46:33;16.42;;;5.00;;
59659;SDS011;45534;52.690;6.268;2023-03-31T00:49:13;12.82;;;4.97;;
59659;SDS011;45534;52.690;6.268;2023-03-31T00:51:44;8.68;;;4.20;;
59659;SDS011;45534;52.690;6.268;2023-03-31T00:54:12;19.95;;;5.13;;
59659;SDS011;45534;52.690;6.268;2023-03-31T00:56:40;12.70;;;3.47;;
59659;SDS011;45534;52.690;6.268;2023-03-31T00:59:10;4.88;;;2.78;;
59659;SDS011;45534;52.690;6.268;2023-03-31T01:01:37;10.23;;;3.65;;
59659;SDS011;45534;52.690;6.268;2023-03-31T01:04:06;20.63;;;5.00;;
59659;SDS011;45534;52.690;6.268;2023-03-31T01:06:34;11.13;;;4.00;;
59659;SDS011;45534;52.690;6.268;2023-03-31T01:09:06;13.77;;;2.88;;
59659;SDS011;45534;52.690;6.268;2023-03-31T01:11:32;15.73;;;5.22;;
59659;SDS011;45534;52.690;6.268;2023-03-31T01:13:58;28.70;;;8.00;;
59659;SDS011;45534;52.690;6.268;2023-03-31T01:16:25;5.82;;;3.30;;
59659;SDS011;45534;52.690;6.268;2023-03-31T01:18:50;19.65;;;3.10;;
59659;SDS011;45534;52.690;6.268;2023-03-31T01:27:55;15.77;;;5.57;;
59659;SDS011;45534;52.690;6.268;2023-03-31T01:36:09;17.42;;;4.07;;
59659;SDS011;45534;52.690;6.268;2023-03-31T01:39:04;14.25;;;4.90;;
59659;SDS011;45534;52.690;6.268;2023-03-31T01:44:34;20.17;;;4.43;;
59659;SDS011;45534;52.690;6.268;2023-03-31T01:47:08;11.25;;;5.60;;
59659;SDS011;45534;52.690;6.268;2023-03-31T01:49:58;19.25;;;6.35;;
59659;SDS011;45534;52.690;6.268;2023-03-31T01:52:37;10.07;;;4.57;;
59659;SDS011;45534;52.690;6.268;2023-03-31T01:55:15;12.07;;;5.10;;
59659;SDS011;45534;52.690;6.268;2023-03-31T01:57:49;12.55;;;3.95;;
59659;SDS011;45534;52.690;6.268;2023-03-31T02:00:22;13.38;;;4.25;;
59659;SDS011;45534;52.690;6.268;2023-03-31T02:03:36;14.50;;;4.47;;
59659;SDS011;45534;52.690;6.268;2023-03-31T02:05:56;14.88;;;5.32;;
59659;SDS011;45534;52.690;6.268;2023-03-31T02:08:28;12.43;;;2.97;;
59659;SDS011;45534;52.690;6.268;2023-03-31T02:10:58;6.53;;;3.33;;
59659;SDS011;45534;52.690;6.268;2023-03-31T02:13:25;23.45;;;6.03;;
59659;SDS011;45534;52.690;6.268;2023-03-31T02:15:58;5.97;;;3.55;;
59659;SDS011;45534;52.690;6.268;2023-03-31T02:18:30;11.48;;;4.32;;
59659;SDS011;45534;52.690;6.268;2023-03-31T02:21:02;9.27;;;3.67;;
59659;SDS011;45534;52.690;6.268;2023-03-31T02:23:30;4.32;;;3.30;;
59659;SDS011;45534;52.690;6.268;2023-03-31T02:28:31;10.90;;;3.70;;
59659;SDS011;45534;52.690;6.268;2023-03-31T02:31:16;16.75;;;4.93;;
59659;SDS011;45534;52.690;6.268;2023-03-31T02:33:49;8.60;;;3.05;;
59659;SDS011;45534;52.690;6.268;2023-03-31T02:36:16;10.65;;;2.83;;
59659;SDS011;45534;52.690;6.268;2023-03-31T02:38:43;10.05;;;2.83;;
59659;SDS011;45534;52.690;6.268;2023-03-31T02:41:12;8.75;;;6.15;;
59659;SDS011;45534;52.690;6.268;2023-03-31T02:43:38;13.02;;;4.22;;
59659;SDS011;45534;52.690;6.268;2023-03-31T02:46:04;16.98;;;5.32;;
59659;SDS011;45534;52.690;6.268;2023-03-31T02:48:35;12.63;;;4.40;;
59659;SDS011;45534;52.690;6.268;2023-03-31T03:08:17;15.70;;;6.63;;
59659;SDS011;45534;52.690;6.268;2023-03-31T03:17:04;14.90;;;3.28;;
59659;SDS011;45534;52.690;6.268;2023-03-31T03:19:31;7.88;;;4.35;;
59659;SDS011;45534;52.690;6.268;2023-03-31T03:21:56;13.15;;;4.57;;
59659;SDS011;45534;52.690;6.268;2023-03-31T03:24:22;12.75;;;6.78;;
59659;SDS011;45534;52.690;6.268;2023-03-31T03:26:53;6.68;;;4.07;;
59659;SDS011;45534;52.690;6.268;2023-03-31T03:29:19;9.90;;;5.55;;
59659;SDS011;45534;52.690;6.268;2023-03-31T03:31:45;12.25;;;6.32;;
59659;SDS011;45534;52.690;6.268;2023-03-31T03:34:11;11.48;;;5.55;;
59659;SDS011;45534;52.690;6.268;2023-03-31T03:36:37;9.95;;;4.55;;
59659;SDS011;45534;52.690;6.268;2023-03-31T03:39:03;11.13;;;5.32;;
59659;SDS011;45534;52.690;6.268;2023-03-31T03:41:31;10.27;;;4.63;;
59659;SDS011;45534;52.690;6.268;2023-03-31T03:43:57;15.45;;;5.85;;
59659;SDS011;45534;52.690;6.268;2023-03-31T03:46:24;11.45;;;4.15;;
59659;SDS011;45534;52.690;6.268;2023-03-31T03:48:50;8.43;;;4.80;;
59659;SDS011;45534;52.690;6.268;2023-03-31T03:51:15;10.80;;;5.05;;
59659;SDS011;45534;52.690;6.268;2023-03-31T03:53:41;23.08;;;4.25;;
59659;SDS011;45534;52.690;6.268;2023-03-31T03:56:07;13.98;;;4.72;;
59659;SDS011;45534;52.690;6.268;2023-03-31T03:58:33;13.52;;;5.45;;
59659;SDS011;45534;52.690;6.268;2023-03-31T04:00:58;8.95;;;3.70;;
59659;SDS011;45534;52.690;6.268;2023-03-31T04:03:24;14.25;;;4.50;;
59659;SDS011;45534;52.690;6.268;2023-03-31T04:05:50;5.32;;;3.53;;
59659;SDS011;45534;52.690;6.268;2023-03-31T04:08:17;12.90;;;5.05;;
59659;SDS011;45534;52.690;6.268;2023-03-31T04:10:46;20.67;;;4.55;;
59659;SDS011;45534;52.690;6.268;2023-03-31T04:13:17;23.88;;;7.00;;
59659;SDS011;45534;52.690;6.268;2023-03-31T04:15:44;15.68;;;4.10;;
59659;SDS011;45534;52.690;6.268;2023-03-31T04:18:10;14.43;;;4.57;;
59659;SDS011;45534;52.690;6.268;2023-03-31T04:20:43;12.57;;;4.22;;
59659;SDS011;45534;52.690;6.268;2023-03-31T04:23:09;7.93;;;3.85;;
59659;SDS011;45534;52.690;6.268;2023-03-31T04:25:39;12.60;;;5.15;;
59659;SDS011;45534;52.690;6.268;2023-03-31T04:28:10;15.00;;;5.30;;
59659;SDS011;45534;52.690;6.268;2023-03-31T04:30:38;12.90;;;5.25;;
59659;SDS011;45534;52.690;6.268;2023-03-31T04:33:04;7.60;;;4.45;;
59659;SDS011;45534;52.690;6.268;2023-03-31T04:35:30;17.02;;;5.47;;
59659;SDS011;45534;52.690;6.268;2023-03-31T04:38:14;7.63;;;3.92;;
59659;SDS011;45534;52.690;6.268;2023-03-31T04:40:47;9.60;;;4.57;;
59659;SDS011;45534;52.690;6.268;2023-03-31T04:43:15;9.93;;;4.70;;
59659;SDS011;45534;52.690;6.268;2023-03-31T04:45:42;11.10;;;5.68;;
59659;SDS011;45534;52.690;6.268;2023-03-31T04:48:08;6.40;;;4.43;;
59659;SDS011;45534;52.690;6.268;2023-03-31T04:50:34;13.52;;;4.45;;
59659;SDS011;45534;52.690;6.268;2023-03-31T04:53:00;10.70;;;5.22;;
59659;SDS011;45534;52.690;6.268;2023-03-31T04:55:27;10.65;;;6.50;;
59659;SDS011;45534;52.690;6.268;2023-03-31T04:57:53;8.02;;;4.30;;
59659;SDS011;45534;52.690;6.268;2023-03-31T05:00:19;8.40;;;4.22;;
59659;SDS011;45534;52.690;6.268;2023-03-31T05:02:45;11.02;;;4.03;;
59659;SDS011;45534;52.690;6.268;2023-03-31T05:05:11;9.52;;;5.85;;
59659;SDS011;45534;52.690;6.268;2023-03-31T05:07:37;9.15;;;6.35;;
59659;SDS011;45534;52.690;6.268;2023-03-31T05:10:03;17.45;;;5.30;;
59659;SDS011;45534;52.690;6.268;2023-03-31T05:12:33;6.88;;;3.42;;
59659;SDS011;45534;52.690;6.268;2023-03-31T05:14:59;16.80;;;5.45;;
59659;SDS011;45534;52.690;6.268;2023-03-31T05:17:29;7.15;;;4.40;;
59659;SDS011;45534;52.690;6.268;2023-03-31T05:19:56;10.75;;;4.95;;
59659;SDS011;45534;52.690;6.268;2023-03-31T05:22:22;12.13;;;5.22;;
59659;SDS011;45534;52.690;6.268;2023-03-31T05:24:48;20.67;;;4.60;;
59659;SDS011;45534;52.690;6.268;2023-03-31T05:27:14;10.38;;;5.25;;
59659;SDS011;45534;52.690;6.268;2023-03-31T05:29:40;10.10;;;4.68;;
59659;SDS011;45534;52.690;6.268;2023-03-31T05:32:05;9.68;;;4.90;;
59659;SDS011;45534;52.690;6.268;2023-03-31T05:34:31;9.95;;;4.63;;
59659;SDS011;45534;52.690;6.268;2023-03-31T05:36:57;5.30;;;3.40;;
59659;SDS011;45534;52.690;6.268;2023-03-31T05:39:23;8.73;;;5.78;;
59659;SDS011;45534;52.690;6.268;2023-03-31T05:41:49;7.18;;;4.75;;
59659;SDS011;45534;52.690;6.268;2023-03-31T05:44:14;6.00;;;3.20;;
59659;SDS011;45534;52.690;6.268;2023-03-31T05:46:40;8.57;;;3.20;;
59659;SDS011;45534;52.690;6.268;2023-03-31T05:49:06;6.00;;;3.80;;
59659;SDS011;45534;52.690;6.268;2023-03-31T05:51:32;8.70;;;4.15;;
59659;SDS011;45534;52.690;6.268;2023-03-31T05:53:58;9.57;;;5.15;;
59659;SDS011;45534;52.690;6.268;2023-03-31T05:56:24;12.55;;;4.75;;
59659;SDS011;45534;52.690;6.268;2023-03-31T05:58:51;10.80;;;4.95;;
59659;SDS011;45534;52.690;6.268;2023-03-31T06:01:17;13.95;;;5.72;;
59659;SDS011;45534;52.690;6.268;2023-03-31T06:03:47;9.40;;;5.70;;
59659;SDS011;45534;52.690;6.268;2023-03-31T06:06:13;8.48;;;4.82;;
59659;SDS011;45534;52.690;6.268;2023-03-31T06:08:40;9.25;;;4.38;;
59659;SDS011;45534;52.690;6.268;2023-03-31T06:11:08;12.73;;;4.88;;
59659;SDS011;45534;52.690;6.268;2023-03-31T06:13:35;6.55;;;5.32;;
59659;SDS011;45534;52.690;6.268;2023-03-31T06:16:01;14.95;;;6.63;;
59659;SDS011;45534;52.690;6.268;2023-03-31T06:18:28;6.10;;;4.22;;
59659;SDS011;45534;52.690;6.268;2023-03-31T06:20:55;8.23;;;3.78;;
59659;SDS011;45534;52.690;6.268;2023-03-31T06:23:22;5.78;;;3.90;;
59659;SDS011;45534;52.690;6.268;2023-03-31T06:25:48;6.10;;;3.67;;
59659;SDS011;45534;52.690;6.268;2023-03-31T06:28:14;12.30;;;5.25;;
59659;SDS011;45534;52.690;6.268;2023-03-31T06:30:40;12.63;;;5.15;;
59659;SDS011;45534;52.690;6.268;2023-03-31T06:33:06;11.75;;;3.95;;
59659;SDS011;45534;52.690;6.268;2023-03-31T06:35:32;11.77;;;3.95;;
59659;SDS011;45534;52.690;6.268;2023-03-31T06:38:01;8.70;;;4.18;;
59659;SDS011;45534;52.690;6.268;2023-03-31T06:40:27;8.10;;;4.20;;
59659;SDS011;45534;52.690;6.268;2023-03-31T06:42:53;12.23;;;5.55;;
59659;SDS011;45534;52.690;6.268;2023-03-31T06:45:19;13.02;;;3.17;;
59659;SDS011;45534;52.690;6.268;2023-03-31T06:47:45;6.63;;;3.25;;
59659;SDS011;45534;52.690;6.268;2023-03-31T06:50:11;10.00;;;5.35;;
59659;SDS011;45534;52.690;6.268;2023-03-31T06:52:37;7.65;;;4.65;;
59659;SDS011;45534;52.690;6.268;2023-03-31T06:55:05;14.48;;;4.07;;
59659;SDS011;45534;52.690;6.268;2023-03-31T06:57:31;9.43;;;4.50;;
59659;SDS011;45534;52.690;6.268;2023-03-31T06:59:58;6.97;;;3.15;;
59659;SDS011;45534;52.690;6.268;2023-03-31T07:02:24;17.63;;;3.58;;
59659;SDS011;45534;52.690;6.268;2023-03-31T07:04:50;8.45;;;3.72;;
59659;SDS011;45534;52.690;6.268;2023-03-31T07:07:16;17.05;;;4.85;;
59659;SDS011;45534;52.690;6.268;2023-03-31T07:09:42;14.98;;;5.25;;
59659;SDS011;45534;52.690;6.268;2023-03-31T07:12:07;9.77;;;5.30;;
59659;SDS011;45534;52.690;6.268;2023-03-31T07:14:34;8.98;;;5.05;;
59659;SDS011;45534;52.690;6.268;2023-03-31T07:17:00;7.72;;;3.65;;
59659;SDS011;45534;52.690;6.268;2023-03-31T07:19:26;9.52;;;3.80;;
59659;SDS011;45534;52.690;6.268;2023-03-31T07:21:52;13.07;;;3.55;;
59659;SDS011;45534;52.690;6.268;2023-03-31T07:24:18;11.27;;;4.53;;
59659;SDS011;45534;52.690;6.268;2023-03-31T07:26:44;7.35;;;3.40;;
59659;SDS011;45534;52.690;6.268;2023-03-31T07:29:10;9.57;;;4.30;;
59659;SDS011;45534;52.690;6.268;2023-03-31T07:31:35;12.75;;;3.95;;
59659;SDS011;45534;52.690;6.268;2023-03-31T07:34:01;5.82;;;3.10;;
59659;SDS011;45534;52.690;6.268;2023-03-31T07:36:29;7.97;;;4.22;;
59659;SDS011;45534;52.690;6.268;2023-03-31T07:38:55;12.65;;;5.00;;
59659;SDS011;45534;52.690;6.268;2023-03-31T07:41:21;5.97;;;3.30;;
59659;SDS011;45534;52.690;6.268;2023-03-31T07:43:48;14.60;;;4.47;;
59659;SDS011;45534;52.690;6.268;2023-03-31T07:46:19;6.10;;;3.55;;
59659;SDS011;45534;52.690;6.268;2023-03-31T07:48:49;10.52;;;4.47;;
59659;SDS011;45534;52.690;6.268;2023-03-31T07:51:17;10.88;;;4.32;;
59659;SDS011;45534;52.690;6.268;2023-03-31T07:53:45;10.93;;;3.17;;
59659;SDS011;45534;52.690;6.268;2023-03-31T07:56:11;6.57;;;3.47;;
59659;SDS011;45534;52.690;6.268;2023-03-31T07:58:37;4.63;;;3.13;;
59659;SDS011;45534;52.690;6.268;2023-03-31T08:01:03;11.18;;;2.55;;
59659;SDS011;45534;52.690;6.268;2023-03-31T08:03:28;8.00;;;3.40;;
59659;SDS011;45534;52.690;6.268;2023-03-31T08:05:56;6.25;;;4.30;;
59659;SDS011;45534;52.690;6.268;2023-03-31T08:08:22;8.18;;;4.20;;
59659;SDS011;45534;52.690;6.268;2023-03-31T08:10:47;5.28;;;3.22;;
59659;SDS011;45534;52.690;6.268;2023-03-31T08:13:13;10.82;;;5.22;;
59659;SDS011;45534;52.690;6.268;2023-03-31T08:15:39;8.13;;;4.53;;
59659;SDS011;45534;52.690;6.268;2023-03-31T08:18:05;14.68;;;5.57;;
59659;SDS011;45534;52.690;6.268;2023-03-31T08:20:31;5.22;;;3.38;;
59659;SDS011;45534;52.690;6.268;2023-03-31T08:22:56;7.15;;;4.47;;
59659;SDS011;45534;52.690;6.268;2023-03-31T08:25:22;12.82;;;4.28;;
59659;SDS011;45534;52.690;6.268;2023-03-31T08:27:48;5.85;;;2.92;;
59659;SDS011;45534;52.690;6.268;2023-03-31T08:30:18;13.77;;;3.30;;
59659;SDS011;45534;52.690;6.268;2023-03-31T08:32:44;16.55;;;3.65;;
59659;SDS011;45534;52.690;6.268;2023-03-31T08:35:10;5.43;;;4.85;;
59659;SDS011;45534;52.690;6.268;2023-03-31T08:37:36;8.82;;;3.95;;
59659;SDS011;45534;52.690;6.268;2023-03-31T08:40:03;2.45;;;2.00;;
59659;SDS011;45534;52.690;6.268;2023-03-31T08:45:06;15.68;;;3.20;;
59659;SDS011;45534;52.690;6.268;2023-03-31T08:47:38;4.82;;;2.00;;
59659;SDS011;45534;52.690;6.268;2023-03-31T08:50:12;2.80;;;2.03;;
59659;SDS011;45534;52.690;6.268;2023-03-31T08:53:04;3.42;;;1.95;;
59659;SDS011;45534;52.690;6.268;2023-03-31T08:55:54;6.22;;;2.38;;
59659;SDS011;45534;52.690;6.268;2023-03-31T09:01:37;6.68;;;2.25;;
59659;SDS011;45534;52.690;6.268;2023-03-31T09:15:16;12.30;;;2.67;;
59659;SDS011;45534;52.690;6.268;2023-03-31T09:17:52;5.22;;;2.92;;
59659;SDS011;45534;52.690;6.268;2023-03-31T09:20:24;6.80;;;2.00;;
59659;SDS011;45534;52.690;6.268;2023-03-31T09:23:00;3.25;;;2.17;;
59659;SDS011;45534;52.690;6.268;2023-03-31T09:25:49;3.13;;;1.90;;
59659;SDS011;45534;52.690;6.268;2023-03-31T09:28:20;2.75;;;2.35;;
59659;SDS011;45534;52.690;6.268;2023-03-31T09:30:48;2.65;;;2.17;;
59659;SDS011;45534;52.690;6.268;2023-03-31T09:33:16;2.45;;;2.25;;
59659;SDS011;45534;52.690;6.268;2023-03-31T09:35:56;5.00;;;3.28;;
59659;SDS011;45534;52.690;6.268;2023-03-31T09:38:30;2.63;;;2.42;;
59659;SDS011;45534;52.690;6.268;2023-03-31T09:40:56;2.72;;;2.05;;
59659;SDS011;45534;52.690;6.268;2023-03-31T09:43:24;6.28;;;3.30;;
59659;SDS011;45534;52.690;6.268;2023-03-31T09:45:52;16.38;;;2.47;;
59659;SDS011;45534;52.690;6.268;2023-03-31T09:48:24;4.43;;;1.70;;
59659;SDS011;45534;52.690;6.268;2023-03-31T09:51:02;10.55;;;1.83;;
59659;SDS011;45534;52.690;6.268;2023-03-31T09:53:40;2.80;;;1.85;;
59659;SDS011;45534;52.690;6.268;2023-03-31T09:59:15;2.15;;;1.70;;
59659;SDS011;45534;52.690;6.268;2023-03-31T10:01:46;2.80;;;2.53;;
59659;SDS011;45534;52.690;6.268;2023-03-31T10:04:19;25.63;;;3.00;;
59659;SDS011;45534;52.690;6.268;2023-03-31T10:06:48;4.63;;;2.17;;
59659;SDS011;45534;52.690;6.268;2023-03-31T10:09:16;4.88;;;2.05;;
59659;SDS011;45534;52.690;6.268;2023-03-31T10:12:19;2.58;;;2.35;;
59659;SDS011;45534;52.690;6.268;2023-03-31T10:17:15;6.68;;;2.78;;
59659;SDS011;45534;52.690;6.268;2023-03-31T10:19:49;4.78;;;2.05;;
59659;SDS011;45534;52.690;6.268;2023-03-31T10:24:47;6.78;;;2.17;;
59659;SDS011;45534;52.690;6.268;2023-03-31T10:27:21;2.20;;;2.00;;
59659;SDS011;45534;52.690;6.268;2023-03-31T10:30:03;5.63;;;2.20;;
59659;SDS011;45534;52.690;6.268;2023-03-31T10:32:33;3.25;;;2.53;;
59659;SDS011;45534;52.690;6.268;2023-03-31T10:35:07;2.03;;;1.85;;
59659;SDS011;45534;52.690;6.268;2023-03-31T10:37:36;4.72;;;2.38;;
59659;SDS011;45534;52.690;6.268;2023-03-31T10:40:12;6.65;;;2.53;;
59659;SDS011;45534;52.690;6.268;2023-03-31T10:42:45;6.68;;;3.55;;
59659;SDS011;45534;52.690;6.268;2023-03-31T10:47:55;8.45;;;2.00;;
59659;SDS011;45534;52.690;6.268;2023-03-31T10:50:26;7.13;;;3.30;;
59659;SDS011;45534;52.690;6.268;2023-03-31T10:52:59;3.78;;;2.83;;
59659;SDS011;45534;52.690;6.268;2023-03-31T10:55:56;4.55;;;2.72;;
59659;SDS011;45534;52.690;6.268;2023-03-31T10:58:35;6.63;;;3.05;;
59659;SDS011;45534;52.690;6.268;2023-03-31T11:17:38;6.05;;;2.33;;
59659;SDS011;45534;52.690;6.268;2023-03-31T11:26:04;7.18;;;3.72;;
59659;SDS011;45534;52.690;6.268;2023-03-31T11:31:29;3.40;;;2.80;;
59659;SDS011;45534;52.690;6.268;2023-03-31T11:34:19;11.23;;;3.92;;
59659;SDS011;45534;52.690;6.268;2023-03-31T11:36:54;5.05;;;3.17;;
59659;SDS011;45534;52.690;6.268;2023-03-31T11:39:47;10.05;;;4.45;;
59659;SDS011;45534;52.690;6.268;2023-03-31T11:44:56;15.45;;;4.82;;
59659;SDS011;45534;52.690;6.268;2023-03-31T11:47:31;11.18;;;3.42;;
59659;SDS011;45534;52.690;6.268;2023-03-31T11:50:02;8.65;;;3.00;;
59659;SDS011;45534;52.690;6.268;2023-03-31T11:52:39;9.18;;;5.07;;
59659;SDS011;45534;52.690;6.268;2023-03-31T11:55:14;7.63;;;3.50;;
59659;SDS011;45534;52.690;6.268;2023-03-31T12:02:54;9.98;;;3.45;;
59659;SDS011;45534;52.690;6.268;2023-03-31T12:05:46;16.02;;;8.60;;
59659;SDS011;45534;52.690;6.268;2023-03-31T12:08:33;15.02;;;3.83;;
59659;SDS011;45534;52.690;6.268;2023-03-31T12:11:04;8.55;;;2.70;;
59659;SDS011;45534;52.690;6.268;2023-03-31T12:16:20;10.13;;;3.95;;
59659;SDS011;45534;52.690;6.268;2023-03-31T12:19:06;10.63;;;5.40;;
59659;SDS011;45534;52.690;6.268;2023-03-31T12:22:26;7.55;;;5.30;;
59659;SDS011;45534;52.690;6.268;2023-03-31T12:24:46;8.35;;;3.42;;
59659;SDS011;45534;52.690;6.268;2023-03-31T12:27:16;7.28;;;2.72;;
59659;SDS011;45534;52.690;6.268;2023-03-31T12:30:02;7.18;;;3.47;;
59659;SDS011;45534;52.690;6.268;2023-03-31T12:32:34;8.02;;;2.50;;
59659;SDS011;45534;52.690;6.268;2023-03-31T12:38:05;11.60;;;2.92;;
59659;SDS011;45534;52.690;6.268;2023-03-31T12:40:57;7.45;;;3.03;;
59659;SDS011;45534;52.690;6.268;2023-03-31T12:49:19;11.82;;;2.28;;
59659;SDS011;45534;52.690;6.268;2023-03-31T12:54:58;20.45;;;3.60;;
59659;SDS011;45534;52.690;6.268;2023-03-31T12:57:45;6.85;;;3.10;;
59659;SDS011;45534;52.690;6.268;2023-03-31T13:00:26;6.43;;;2.15;;
59659;SDS011;45534;52.690;6.268;2023-03-31T13:05:57;6.88;;;2.70;;
59659;SDS011;45534;52.690;6.268;2023-03-31T13:11:40;9.52;;;2.85;;
59659;SDS011;45534;52.690;6.268;2023-03-31T13:16:42;6.90;;;3.33;;
59659;SDS011;45534;52.690;6.268;2023-03-31T13:19:25;6.72;;;2.70;;
59659;SDS011;45534;52.690;6.268;2023-03-31T13:21:57;5.57;;;2.58;;
59659;SDS011;45534;52.690;6.268;2023-03-31T13:24:25;2.90;;;2.08;;
59659;SDS011;45534;52.690;6.268;2023-03-31T13:26:52;18.33;;;2.85;;
59659;SDS011;45534;52.690;6.268;2023-03-31T13:30:02;10.32;;;2.42;;
59659;SDS011;45534;52.690;6.268;2023-03-31T13:32:18;3.25;;;2.20;;
59659;SDS011;45534;52.690;6.268;2023-03-31T13:35:13;6.53;;;2.22;;
59659;SDS011;45534;52.690;6.268;2023-03-31T13:40:36;4.38;;;2.15;;
59659;SDS011;45534;52.690;6.268;2023-03-31T13:49:38;11.30;;;2.80;;
59659;SDS011;45534;52.690;6.268;2023-03-31T13:51:57;34.40;;;4.20;;
59659;SDS011;45534;52.690;6.268;2023-03-31T13:54:43;5.55;;;2.20;;
59659;SDS011;45534;52.690;6.268;2023-03-31T14:06:17;6.10;;;1.67;;
59659;SDS011;45534;52.690;6.268;2023-03-31T14:08:54;12.43;;;4.25;;
59659;SDS011;45534;52.690;6.268;2023-03-31T14:11:28;5.20;;;2.58;;
59659;SDS011;45534;52.690;6.268;2023-03-31T14:16:34;8.90;;;2.60;;
59659;SDS011;45534;52.690;6.268;2023-03-31T14:24:32;7.13;;;2.67;;
59659;SDS011;45534;52.690;6.268;2023-03-31T14:32:38;13.48;;;3.55;;
59659;SDS011;45534;52.690;6.268;2023-03-31T14:37:53;8.48;;;2.67;;
59659;SDS011;45534;52.690;6.268;2023-03-31T14:40:20;5.95;;;2.25;;
59659;SDS011;45534;52.690;6.268;2023-03-31T14:42:46;8.60;;;3.63;;
59659;SDS011;45534;52.690;6.268;2023-03-31T14:45:19;8.52;;;3.42;;
59659;SDS011;45534;52.690;6.268;2023-03-31T14:48:02;6.03;;;2.35;;
59659;SDS011;45534;52.690;6.268;2023-03-31T14:50:35;3.15;;;2.22;;
59659;SDS011;45534;52.690;6.268;2023-03-31T14:53:01;8.60;;;3.80;;
59659;SDS011;45534;52.690;6.268;2023-03-31T14:55:29;9.95;;;3.80;;
59659;SDS011;45534;52.690;6.268;2023-03-31T14:57:57;10.00;;;3.65;;
59659;SDS011;45534;52.690;6.268;2023-03-31T15:00:29;5.97;;;3.92;;
59659;SDS011;45534;52.690;6.268;2023-03-31T15:02:57;3.17;;;2.05;;
59659;SDS011;45534;52.690;6.268;2023-03-31T15:05:29;3.38;;;2.08;;
59659;SDS011;45534;52.690;6.268;2023-03-31T15:07:57;4.85;;;2.47;;
59659;SDS011;45534;52.690;6.268;2023-03-31T15:10:28;6.35;;;2.92;;
59659;SDS011;45534;52.690;6.268;2023-03-31T15:13:00;9.38;;;3.35;;
59659;SDS011;45534;52.690;6.268;2023-03-31T15:15:31;5.03;;;3.03;;
59659;SDS011;45534;52.690;6.268;2023-03-31T15:17:57;10.57;;;2.65;;
59659;SDS011;45534;52.690;6.268;2023-03-31T15:20:28;2.88;;;1.83;;
59659;SDS011;45534;52.690;6.268;2023-03-31T15:22:57;10.75;;;5.55;;
59659;SDS011;45534;52.690;6.268;2023-03-31T15:25:25;6.93;;;3.13;;
59659;SDS011;45534;52.690;6.268;2023-03-31T15:28:01;5.00;;;2.13;;
59659;SDS011;45534;52.690;6.268;2023-03-31T15:30:30;12.57;;;3.58;;
59659;SDS011;45534;52.690;6.268;2023-03-31T15:32:56;22.60;;;4.88;;
59659;SDS011;45534;52.690;6.268;2023-03-31T15:35:30;11.95;;;5.50;;
59659;SDS011;45534;52.690;6.268;2023-03-31T15:37:58;6.57;;;2.85;;
59659;SDS011;45534;52.690;6.268;2023-03-31T15:40:34;4.35;;;2.13;;
59659;SDS011;45534;52.690;6.268;2023-03-31T15:43:08;10.10;;;2.08;;
59659;SDS011;45534;52.690;6.268;2023-03-31T15:45:47;4.35;;;2.60;;
59659;SDS011;45534;52.690;6.268;2023-03-31T15:48:16;6.50;;;2.40;;
59659;SDS011;45534;52.690;6.268;2023-03-31T15:50:45;4.47;;;2.60;;
59659;SDS011;45534;52.690;6.268;2023-03-31T15:55:55;5.68;;;2.75;;
59659;SDS011;45534;52.690;6.268;2023-03-31T16:01:10;7.00;;;2.83;;
59659;SDS011;45534;52.690;6.268;2023-03-31T16:03:39;5.72;;;2.92;;
59659;SDS011;45534;52.690;6.268;2023-03-31T16:11:16;10.07;;;3.92;;
59659;SDS011;45534;52.690;6.268;2023-03-31T16:13:46;7.45;;;2.95;;
59659;SDS011;45534;52.690;6.268;2023-03-31T16:16:17;10.70;;;3.05;;
59659;SDS011;45534;52.690;6.268;2023-03-31T16:18:49;7.07;;;2.13;;
59659;SDS011;45534;52.690;6.268;2023-03-31T16:21:19;1.27;;;1.27;;
59659;SDS011;45534;52.690;6.268;2023-03-31T16:23:49;4.97;;;2.25;;
59659;SDS011;45534;52.690;6.268;2023-03-31T16:26:24;6.15;;;2.67;;
59659;SDS011;45534;52.690;6.268;2023-03-31T16:28:52;2.53;;;2.33;;
59659;SDS011;45534;52.690;6.268;2023-03-31T16:34:06;3.97;;;2.03;;
59659;SDS011;45534;52.690;6.268;2023-03-31T16:36:33;2.47;;;2.03;;
59659;SDS011;45534;52.690;6.268;2023-03-31T16:38:59;4.20;;;2.05;;
59659;SDS011;45534;52.690;6.268;2023-03-31T16:41:28;4.53;;;2.80;;
59659;SDS011;45534;52.690;6.268;2023-03-31T16:43:55;3.40;;;2.05;;
59659;SDS011;45534;52.690;6.268;2023-03-31T16:46:21;1.83;;;1.58;;
59659;SDS011;45534;52.690;6.268;2023-03-31T16:48:48;2.30;;;2.10;;
59659;SDS011;45534;52.690;6.268;2023-03-31T16:51:15;4.68;;;2.55;;
59659;SDS011;45534;52.690;6.268;2023-03-31T16:53:42;2.53;;;1.58;;
59659;SDS011;45534;52.690;6.268;2023-03-31T16:56:08;2.05;;;1.85;;
59659;SDS011;45534;52.690;6.268;2023-03-31T16:58:36;3.40;;;1.60;;
59659;SDS011;45534;52.690;6.268;2023-03-31T17:01:03;5.10;;;2.28;;
59659;SDS011;45534;52.690;6.268;2023-03-31T17:03:31;3.10;;;2.20;;
59659;SDS011;45534;52.690;6.268;2023-03-31T17:05:57;2.95;;;2.08;;
59659;SDS011;45534;52.690;6.268;2023-03-31T17:08:28;6.00;;;2.97;;
59659;SDS011;45534;52.690;6.268;2023-03-31T17:11:04;11.07;;;3.65;;
59659;SDS011;45534;52.690;6.268;2023-03-31T17:13:36;4.10;;;2.50;;
59659;SDS011;45534;52.690;6.268;2023-03-31T17:16:03;1.70;;;1.60;;
59659;SDS011;45534;52.690;6.268;2023-03-31T17:18:29;6.50;;;2.58;;
59659;SDS011;45534;52.690;6.268;2023-03-31T17:21:01;2.50;;;1.70;;
59659;SDS011;45534;52.690;6.268;2023-03-31T17:23:28;6.68;;;2.58;;
59659;SDS011;45534;52.690;6.268;2023-03-31T17:25:54;8.45;;;3.50;;
59659;SDS011;45534;52.690;6.268;2023-03-31T17:28:20;3.95;;;2.63;;
59659;SDS011;45534;52.690;6.268;2023-03-31T17:30:45;13.15;;;3.05;;
59659;SDS011;45534;52.690;6.268;2023-03-31T17:33:15;10.57;;;2.22;;
59659;SDS011;45534;52.690;6.268;2023-03-31T17:35:41;2.42;;;2.25;;
59659;SDS011;45534;52.690;6.268;2023-03-31T17:38:07;6.78;;;2.28;;
59659;SDS011;45534;52.690;6.268;2023-03-31T17:40:35;2.00;;;1.88;;
59659;SDS011;45534;52.690;6.268;2023-03-31T17:43:01;2.28;;;1.88;;
59659;SDS011;45534;52.690;6.268;2023-03-31T17:45:27;3.75;;;2.63;;
59659;SDS011;45534;52.690;6.268;2023-03-31T17:47:54;4.88;;;1.75;;
59659;SDS011;45534;52.690;6.268;2023-03-31T17:50:20;3.58;;;2.20;;
59659;SDS011;45534;52.690;6.268;2023-03-31T17:52:46;2.28;;;1.67;;
59659;SDS011;45534;52.690;6.268;2023-03-31T17:55:11;4.72;;;3.15;;
59659;SDS011;45534;52.690;6.268;2023-03-31T17:57:38;4.75;;;1.45;;